createdAt,value
2022-11-20T00:03:15.615Z,52.21
2022-11-20T00:08:18.644Z,52.99
2022-11-20T00:13:22.654Z,52.71
2022-11-20T00:18:24.602Z,52.01
2022-11-20T00:23:26.486Z,52.14
2022-11-20T00:28:30.551Z,52.48
2022-11-20T00:33:33.818Z,52.22
2022-11-20T00:38:38.295Z,51.78
2022-11-20T00:43:43.015Z,52.70
2022-11-20T00:48:46.195Z,52.25
2022-11-20T00:53:48.257Z,51.94
2022-11-20T00:58:50.653Z,52.64
2022-11-20T01:03:57.254Z,52.58
2022-11-20T01:09:05.272Z,52.14
2022-11-20T01:14:10.984Z,52.18
2022-11-20T01:19:18.232Z,52.28
2022-11-20T01:24:22.498Z,52.20
2022-11-20T01:29:25.592Z,52.45
2022-11-20T01:34:29.001Z,52.76
2022-11-20T01:39:30.865Z,52.45
2022-11-20T01:44:56.169Z,52.70
2022-11-20T01:50:28.203Z,52.04
2022-11-20T01:55:34.050Z,52.92
2022-11-20T02:00:37.105Z,52.96
2022-11-20T02:05:48.013Z,52.28
2022-11-20T02:10:49.874Z,52.78
2022-11-20T02:15:55.588Z,52.34
2022-11-20T02:21:07.723Z,53.05
2022-11-20T02:26:17.165Z,52.66
2022-11-20T02:31:18.940Z,53.05
2022-11-20T02:36:20.640Z,53.28
2022-11-20T02:41:23.602Z,53.02
2022-11-20T02:46:27.122Z,52.84
2022-11-20T02:51:28.789Z,52.91
2022-11-20T02:56:30.959Z,52.92
2022-11-20T03:01:32.887Z,52.63
2022-11-20T03:06:36.901Z,53.00
2022-11-20T03:11:38.644Z,52.85
2022-11-20T03:16:40.524Z,52.99
2022-11-20T03:21:42.299Z,52.82
2022-11-20T03:26:46.218Z,53.29
2022-11-20T03:31:50.140Z,53.20
2022-11-20T03:36:51.993Z,53.51
2022-11-20T03:41:53.745Z,53.45
2022-11-20T03:46:56.109Z,53.16
2022-11-20T03:51:58.937Z,53.32
2022-11-20T03:57:00.931Z,53.29
2022-11-20T04:02:03.004Z,53.93
2022-11-20T04:07:08.156Z,53.44
2022-11-20T04:12:09.917Z,53.31
2022-11-20T04:17:11.487Z,53.74
2022-11-20T04:22:16.645Z,53.50
2022-11-20T04:27:20.029Z,53.63
2022-11-20T04:32:22.465Z,53.58
2022-11-20T04:37:24.110Z,53.59
2022-11-20T04:42:33.073Z,54.23
2022-11-20T04:47:36.073Z,54.35
2022-11-20T04:52:41.010Z,54.65
2022-11-20T04:57:44.472Z,54.32
2022-11-20T05:02:46.205Z,54.07
2022-11-20T05:07:47.972Z,53.96
2022-11-20T05:12:49.601Z,54.05
2022-11-20T05:17:52.720Z,54.46
2022-11-20T05:22:58.026Z,54.32
2022-11-20T05:28:01.606Z,54.45
2022-11-20T05:33:03.255Z,54.41
2022-11-20T05:38:04.862Z,54.79
2022-11-20T05:43:07.762Z,54.67
2022-11-20T05:48:09.388Z,55.03
2022-11-20T05:53:12.182Z,54.41
2022-11-20T05:58:13.893Z,54.96
2022-11-20T06:03:16.998Z,54.91
2022-11-20T06:08:19.401Z,55.08
2022-11-20T06:13:21.294Z,55.18
2022-11-20T06:18:23.182Z,54.48
2022-11-20T06:23:25.091Z,54.98
2022-11-20T06:28:27.195Z,55.07
2022-11-20T06:33:30.898Z,55.08
2022-11-20T06:38:32.744Z,54.52
2022-11-20T06:43:35.219Z,54.49
2022-11-20T06:48:37.153Z,55.07
2022-11-20T06:53:39.417Z,54.87
2022-11-20T06:58:41.124Z,55.39
2022-11-20T07:03:43.682Z,55.30
2022-11-20T07:08:45.356Z,55.51
2022-11-20T07:13:47.600Z,55.55
2022-11-20T07:18:50.964Z,55.58
2022-11-20T07:23:53.911Z,55.29
2022-11-20T07:28:55.695Z,55.19
2022-11-20T07:33:57.346Z,56.00
2022-11-20T07:38:59.004Z,55.67
2022-11-20T07:44:00.784Z,56.43
2022-11-20T07:49:02.532Z,55.69
2022-11-20T07:54:04.415Z,56.52
2022-11-20T07:59:07.365Z,56.22
2022-11-20T08:04:10.409Z,56.69
2022-11-20T08:09:12.297Z,56.79
2022-11-20T08:14:14.419Z,56.56
2022-11-20T08:19:18.453Z,56.85
2022-11-20T08:24:20.125Z,56.51
2022-11-20T08:29:22.112Z,56.73
2022-11-20T08:34:24.203Z,56.80
2022-11-20T08:39:25.838Z,56.11
2022-11-20T08:44:28.532Z,56.09
2022-11-20T08:49:30.194Z,56.60
2022-11-20T08:54:31.887Z,56.16
2022-11-20T09:04:55.204Z,56.24
2022-11-20T09:10:22.267Z,56.87
2022-11-20T09:15:19.227Z,56.92
2022-11-20T09:20:21.064Z,56.59
2022-11-20T09:25:23.403Z,57.02
2022-11-20T09:30:25.873Z,56.98
2022-11-20T09:35:27.509Z,57.21
2022-11-20T09:40:30.555Z,56.82
2022-11-20T09:45:53.704Z,56.96
2022-11-20T09:51:13.471Z,56.85
2022-11-20T09:56:19.804Z,56.90
2022-11-20T10:01:32.130Z,57.37
2022-11-20T10:07:30.747Z,57.15
2022-11-20T10:12:38.403Z,57.18
2022-11-20T10:18:11.953Z,57.68
2022-11-20T10:23:41.472Z,57.47
2022-11-20T10:29:08.697Z,57.63
2022-11-20T10:34:23.034Z,57.79
2022-11-20T10:39:36.635Z,57.92
2022-11-20T10:45:05.850Z,57.45
2022-11-20T10:50:21.847Z,57.84
2022-11-20T10:55:40.165Z,57.95
2022-11-20T11:00:41.936Z,57.53
2022-11-20T11:06:07.280Z,57.73
2022-11-20T11:11:31.337Z,57.77
2022-11-20T11:16:33.118Z,57.57
2022-11-20T11:21:35.302Z,57.59
2022-11-20T11:26:38.234Z,58.04
2022-11-20T11:31:40.054Z,58.17
2022-11-20T11:36:42.940Z,58.17
2022-11-20T11:41:45.061Z,57.96
2022-11-20T11:46:57.608Z,57.85
2022-11-20T11:52:08.622Z,58.11
2022-11-20T11:57:37.431Z,57.92
2022-11-20T12:02:45.574Z,58.71
2022-11-20T12:08:11.048Z,58.09
2022-11-20T12:13:38.045Z,58.33
2022-11-20T12:18:41.157Z,58.32
2022-11-20T12:24:01.273Z,58.46
2022-11-20T12:29:37.026Z,58.16
2022-11-20T12:34:48.108Z,58.42
2022-11-20T12:39:53.604Z,58.46
2022-11-20T12:45:47.135Z,58.82
2022-11-20T12:51:15.175Z,58.80
2022-11-20T12:56:59.464Z,58.75
2022-11-20T13:02:26.765Z,58.92
2022-11-20T13:07:29.718Z,58.67
2022-11-20T13:12:41.105Z,58.77
2022-11-20T13:17:55.215Z,58.91
2022-11-20T13:23:02.363Z,58.97
2022-11-20T13:28:24.364Z,58.74
2022-11-20T13:33:31.519Z,58.88
2022-11-20T13:38:49.321Z,58.63
2022-11-20T13:43:51.029Z,58.96
2022-11-20T13:48:54.651Z,58.79
2022-11-20T13:54:24.080Z,58.55
2022-11-20T14:00:19.230Z,58.25
2022-11-20T14:05:24.397Z,58.27
2022-11-20T14:10:32.357Z,57.83
2022-11-20T14:15:36.619Z,58.04
2022-11-20T14:20:42.818Z,58.20
2022-11-20T14:25:46.074Z,57.99
2022-11-20T14:30:49.893Z,57.81
2022-11-20T14:35:54.893Z,57.69
2022-11-20T14:41:07.968Z,58.01
2022-11-20T14:46:11.534Z,58.13
2022-11-20T14:51:26.741Z,58.20
2022-11-20T14:56:28.474Z,57.95
2022-11-20T15:01:32.132Z,58.25
2022-11-20T15:06:34.059Z,58.17
2022-11-20T15:11:36.805Z,58.16
2022-11-20T15:16:40.242Z,58.12
2022-11-20T15:21:41.813Z,57.84
2022-11-20T15:26:44.314Z,58.39
2022-11-20T15:31:46.167Z,58.18
2022-11-20T15:36:47.964Z,57.92
2022-11-20T15:41:49.569Z,57.51
2022-11-20T15:46:51.289Z,57.21
2022-11-20T15:51:54.196Z,57.71
2022-11-20T15:56:55.954Z,56.98
2022-11-20T16:01:57.768Z,57.33
2022-11-20T16:06:59.681Z,57.13
2022-11-20T16:12:01.747Z,57.37
2022-11-20T16:17:03.858Z,57.00
2022-11-20T16:22:05.708Z,57.62
2022-11-20T16:27:07.496Z,57.03
2022-11-20T16:32:11.202Z,56.97
2022-11-20T16:37:13.013Z,57.33
2022-11-20T16:42:14.658Z,57.33
2022-11-20T16:47:16.247Z,57.59
2022-11-20T16:52:18.074Z,57.24
2022-11-20T16:57:19.899Z,56.90
2022-11-20T17:02:21.682Z,57.71
2022-11-20T17:07:23.617Z,57.09
2022-11-20T17:12:25.353Z,57.47
2022-11-20T17:17:28.354Z,57.36
2022-11-20T17:22:30.124Z,57.36
2022-11-20T17:27:31.747Z,57.62
2022-11-20T17:32:33.370Z,57.34
2022-11-20T17:37:35.003Z,56.92
2022-11-20T17:42:37.019Z,57.22
2022-11-20T17:47:38.822Z,57.25
2022-11-20T17:52:40.439Z,56.67
2022-11-20T17:57:57.505Z,56.69
2022-11-20T18:02:59.346Z,56.85
2022-11-20T18:08:01.313Z,56.63
2022-11-20T18:13:02.933Z,56.87
2022-11-20T18:18:04.689Z,56.95
2022-11-20T18:23:06.450Z,56.61
2022-11-20T18:28:08.904Z,56.02
2022-11-20T18:33:10.946Z,56.33
2022-11-20T18:38:12.922Z,56.93
2022-11-20T18:43:33.472Z,56.88
2022-11-20T18:48:35.401Z,57.03
2022-11-20T18:53:37.818Z,56.94
2022-11-20T18:58:41.167Z,56.87
2022-11-20T19:03:43.857Z,57.12
2022-11-20T19:08:47.177Z,56.96
2022-11-20T19:13:49.879Z,57.14
2022-11-20T19:18:52.261Z,56.88
2022-11-20T19:23:58.693Z,56.63
2022-11-20T19:29:06.046Z,56.99
2022-11-20T19:34:10.357Z,56.93
2022-11-20T19:39:12.582Z,56.85
2022-11-20T19:44:17.164Z,56.77
2022-11-20T19:49:23.739Z,56.68
2022-11-20T19:54:28.003Z,57.23
2022-11-20T19:59:31.420Z,56.92
2022-11-20T20:04:34.078Z,56.88
2022-11-20T20:09:41.855Z,56.71
2022-11-20T20:14:43.673Z,56.97
2022-11-20T20:19:49.171Z,56.97
2022-11-20T20:24:52.551Z,57.32
2022-11-20T20:29:54.243Z,57.07
2022-11-20T20:34:58.027Z,56.96
2022-11-20T20:40:03.046Z,56.93
2022-11-20T20:45:08.214Z,57.35
2022-11-20T20:50:12.256Z,56.75
2022-11-20T20:55:14.598Z,56.88
2022-11-20T21:00:17.268Z,56.90
2022-11-20T21:05:20.987Z,57.17
2022-11-20T21:10:23.974Z,57.50
2022-11-20T21:15:29.399Z,57.03
2022-11-20T21:20:52.446Z,57.06
2022-11-20T21:25:55.319Z,57.25
2022-11-20T21:31:11.769Z,57.65
2022-11-20T21:36:29.199Z,57.44
2022-11-20T21:41:36.147Z,57.34
2022-11-20T21:46:40.742Z,57.18
2022-11-20T21:51:42.431Z,57.97
2022-11-20T21:56:44.361Z,57.88
2022-11-20T22:01:48.207Z,57.78
2022-11-20T22:06:54.996Z,58.02
2022-11-20T22:11:58.127Z,58.44
2022-11-20T22:17:02.083Z,58.50
2022-11-20T22:22:04.460Z,58.43
2022-11-20T22:27:06.808Z,58.62
2022-11-20T22:32:08.692Z,58.83
2022-11-20T22:37:13.596Z,58.36
2022-11-20T22:42:15.308Z,58.12
2022-11-20T22:47:18.501Z,58.37
2022-11-20T22:52:22.314Z,58.36
2022-11-20T22:57:27.147Z,58.60
2022-11-20T23:02:31.335Z,58.21
2022-11-20T23:07:41.192Z,57.85
2022-11-20T23:12:45.140Z,58.18
2022-11-20T23:17:47.029Z,58.00
2022-11-20T23:22:49.875Z,58.60
2022-11-20T23:27:53.522Z,58.33
2022-11-20T23:32:56.320Z,58.33
2022-11-20T23:37:59.093Z,58.34
2022-11-20T23:43:17.125Z,58.47
2022-11-20T23:48:22.461Z,59.07
2022-11-20T23:53:25.257Z,58.79
2022-11-20T23:58:34.745Z,58.64
